Time;durP1;ratioP1;P1;durP2;ratioP2;P2;SDS_P1;SDS_P2;PMS_P1;PMS_P2;Temp;Humidity;BMP_temperature;BMP_pressure;BME280_temperature;BME280_humidity;BME280_pressure;Samples;Min_cycle;Max_cycle;Signal;HPM_P1;HPM_P2
2023/01/22 00:04:02;;;;;;;43.60;21.10;;;;;;;-1.18;100.00;103437.34;10484229;28;20036;-82
2023/01/22 00:09:02;;;;;;;38.67;21.03;;;;;;;-1.24;100.00;103427.00;10480770;28;20040;-80
2023/01/22 00:14:03;;;;;;;36.47;20.77;;;;;;;-1.46;100.00;103414.22;10501524;28;20044;-80
2023/01/22 00:19:03;;;;;;;39.00;21.33;;;;;;;-1.52;100.00;103411.97;10485689;28;20048;-80
2023/01/22 00:24:04;;;;;;;39.83;21.13;;;;;;;-1.61;100.00;103402.69;10467756;28;20037;-81
2023/01/22 00:29:05;;;;;;;38.00;21.43;;;;;;;-1.68;100.00;103406.81;10460004;28;20122;-80
2023/01/22 00:34:05;;;;;;;43.53;22.73;;;;;;;-1.77;100.00;103393.97;10461122;28;20075;-81
2023/01/22 00:39:06;;;;;;;39.27;20.60;;;;;;;-1.81;100.00;103387.06;10461122;28;20041;-81
2023/01/22 00:44:06;;;;;;;45.67;21.50;;;;;;;-1.87;100.00;103394.63;10497735;28;20393;-80
2023/01/22 00:49:07;;;;;;;37.57;20.57;;;;;;;-1.93;100.00;103392.38;10494030;28;20124;-81
2023/01/22 00:54:07;;;;;;;42.20;20.17;;;;;;;-2.04;100.00;103405.78;10457950;28;20029;-80
2023/01/22 00:59:09;;;;;;;42.07;19.50;;;;;;;-2.06;100.00;103405.03;10442529;28;20037;-80
2023/01/22 01:04:10;;;;;;;40.83;19.67;;;;;;;-2.07;100.00;103393.38;10497925;28;20036;-81
2023/01/22 01:09:10;;;;;;;38.90;20.27;;;;;;;-2.22;100.00;103363.91;10500856;28;20039;-80
2023/01/22 01:14:11;;;;;;;41.87;21.10;;;;;;;-2.11;100.00;103377.50;10499781;28;20036;-77
2023/01/22 01:19:11;;;;;;;40.20;20.13;;;;;;;-1.92;100.00;103377.91;10500316;28;20048;-81
2023/01/22 01:24:11;;;;;;;44.43;22.13;;;;;;;-1.72;100.00;103381.00;10500582;28;20033;-80
2023/01/22 01:29:12;;;;;;;35.83;19.13;;;;;;;-1.48;100.00;103384.59;10482234;28;20041;-81
2023/01/22 01:34:13;;;;;;;37.37;18.87;;;;;;;-1.29;100.00;103392.19;10498483;28;20035;-81
2023/01/22 01:39:14;;;;;;;39.37;18.07;;;;;;;-1.17;100.00;103371.50;10500279;28;20029;-80
2023/01/22 01:44:19;;;;;;;36.67;18.87;;;;;;;-0.95;100.00;103383.38;10496804;28;20059;-80
2023/01/22 01:49:42;;;;;;;29.27;12.77;;;;;;;-0.84;100.00;103381.59;10498132;28;20028;-80
2023/01/22 01:54:45;;;;;;;26.60;14.90;;;;;;;-0.72;100.00;103371.69;10447540;28;21231;-81
2023/01/22 01:59:45;;;;;;;29.40;16.43;;;;;;;-0.67;100.00;103368.63;10444884;28;20511;-81
2023/01/22 02:04:47;;;;;;;28.87;15.60;;;;;;;-0.54;100.00;103365.81;10480627;28;20041;-82
2023/01/22 02:09:47;;;;;;;18.27;11.73;;;;;;;-0.56;100.00;103357.81;10456258;28;20044;-80
2023/01/22 02:14:48;;;;;;;22.93;12.33;;;;;;;-0.56;100.00;103338.00;10468145;28;20032;-82
2023/01/22 02:19:48;;;;;;;19.03;10.90;;;;;;;-0.38;100.00;103355.50;10463195;28;20107;-81
2023/01/22 02:24:49;;;;;;;13.80;8.93;;;;;;;-0.45;100.00;103333.50;10496879;28;20032;-81
2023/01/22 02:29:49;;;;;;;13.60;8.13;;;;;;;-0.34;100.00;103348.03;10496905;28;20053;-80
2023/01/22 02:34:50;;;;;;;12.03;7.63;;;;;;;-0.34;100.00;103348.88;10496552;28;20070;-79
2023/01/22 02:39:50;;;;;;;14.50;8.67;;;;;;;-0.31;100.00;103339.63;10481177;28;20101;-80
2023/01/22 02:44:51;;;;;;;13.37;8.03;;;;;;;-0.26;100.00;103329.31;10496019;28;20045;-72
2023/01/22 02:49:52;;;;;;;13.00;9.10;;;;;;;-0.23;100.00;103331.78;10495367;28;20056;-72
2023/01/22 02:54:52;;;;;;;10.93;7.00;;;;;;;-0.23;100.00;103335.38;10498111;28;20055;-79
2023/01/22 02:59:53;;;;;;;11.17;7.60;;;;;;;-0.35;100.00;103303.88;10491044;28;20041;-80
2023/01/22 03:05:02;;;;;;;12.80;7.57;;;;;;;-0.24;100.00;103320.09;10435079;28;20052;-80
2023/01/22 03:10:02;;;;;;;10.07;6.93;;;;;;;-0.25;100.00;103322.91;10498999;28;20037;-80
2023/01/22 03:25:41;;;;;;;9.27;6.83;;;;;;;-0.21;100.00;103314.44;10476008;28;20435;-81
2023/01/22 03:30:42;;;;;;;11.93;6.40;;;;;;;-0.19;100.00;103316.16;10495579;28;20040;-80
2023/01/22 03:35:42;;;;;;;13.90;6.67;;;;;;;-0.22;100.00;103311.84;10503475;28;20032;-79
2023/01/22 03:40:43;;;;;;;11.63;7.60;;;;;;;-0.36;100.00;103294.00;10504235;28;20036;-80
2023/01/22 03:45:43;;;;;;;12.00;6.83;;;;;;;-0.17;100.00;103325.00;10500376;28;20055;-80
2023/01/22 03:50:43;;;;;;;10.30;6.37;;;;;;;-0.16;100.00;103321.34;10502007;28;20032;-80
2023/01/22 03:55:44;;;;;;;10.43;6.00;;;;;;;-0.18;100.00;103312.47;10504012;28;20028;-79
2023/01/22 04:00:44;;;;;;;10.83;7.17;;;;;;;-0.18;100.00;103323.31;10504119;28;20028;-78
2023/01/22 04:05:45;;;;;;;8.63;5.40;;;;;;;-0.16;100.00;103329.47;10503501;28;20041;-72
2023/01/22 04:10:45;;;;;;;11.37;6.40;;;;;;;-0.16;100.00;103329.47;10500581;28;20036;-80
2023/01/22 04:15:46;;;;;;;10.27;6.07;;;;;;;-0.16;100.00;103332.16;10503218;28;20096;-79
2023/01/22 04:20:49;;;;;;;7.80;6.20;;;;;;;-0.17;100.00;103328.56;10502073;28;20041;-79
2023/01/22 04:25:50;;;;;;;9.77;6.33;;;;;;;-0.24;100.00;103325.50;10501640;28;20029;-80
2023/01/22 04:30:51;;;;;;;10.03;6.70;;;;;;;-0.17;100.00;103333.13;10503223;28;20066;-79
2023/01/22 04:35:53;;;;;;;13.03;6.70;;;;;;;-0.16;100.00;103332.16;10502499;28;20047;-79
2023/01/22 04:40:53;;;;;;;11.07;6.53;;;;;;;-0.18;100.00;103324.16;10469588;28;20060;-79
2023/01/22 04:45:54;;;;;;;15.80;7.33;;;;;;;-0.23;100.00;103324.53;10476053;28;20063;-79
2023/01/22 04:50:54;;;;;;;9.53;5.80;;;;;;;-0.25;100.00;103329.22;10502510;28;20040;-79
2023/01/22 04:55:54;;;;;;;9.53;5.87;;;;;;;-0.27;100.00;103336.59;10502051;28;20055;-79
2023/01/22 05:00:55;;;;;;;10.03;6.27;;;;;;;-0.31;100.00;103339.63;10471768;28;20101;-79
2023/01/22 05:05:56;;;;;;;9.97;5.83;;;;;;;-0.33;100.00;103337.09;10500750;28;20036;-80
2023/01/22 05:11:00;;;;;;;8.00;5.90;;;;;;;-0.34;100.00;103332.63;10499690;28;20055;-80
2023/01/22 05:16:01;;;;;;;12.17;6.80;;;;;;;-0.31;100.00;103334.22;10499589;28;20063;-79
2023/01/22 05:21:02;;;;;;;11.73;5.77;;;;;;;-0.31;100.00;103340.53;10499424;28;20036;-78
2023/01/22 05:26:02;;;;;;;16.70;6.57;;;;;;;-0.39;100.00;103326.75;10457292;28;20041;-79
2023/01/22 05:31:04;;;;;;;8.83;6.30;;;;;;;-0.30;100.00;103333.25;10498934;28;20096;-79
2023/01/22 05:36:04;;;;;;;10.60;6.93;;;;;;;-0.32;100.00;103332.53;10499428;28;20032;-79
2023/01/22 05:41:05;;;;;;;12.97;6.27;;;;;;;-0.32;100.00;103336.09;10498331;28;20040;-79
2023/01/22 05:46:05;;;;;;;10.63;7.53;;;;;;;-0.31;100.00;103353.19;10497002;28;20412;-77
2023/01/22 05:51:06;;;;;;;11.20;6.40;;;;;;;-0.35;100.00;103352.59;10480150;28;20048;-79
2023/01/22 05:56:07;;;;;;;7.67;6.07;;;;;;;-0.37;100.00;103357.25;10455321;28;20077;-78
2023/01/22 06:01:07;;;;;;;11.00;7.45;;;;;;;-0.38;100.00;103355.50;10470992;28;20041;-79
2023/01/22 06:06:10;;;;;;;8.83;6.63;;;;;;;-0.42;100.00;103337.78;10500384;28;20032;-80
2023/01/22 06:11:15;;;;;;;11.00;6.47;;;;;;;-0.35;100.00;103365.22;10480609;28;20036;-80
2023/01/22 06:16:16;;;;;;;9.80;7.07;;;;;;;-0.41;100.00;103351.22;10480995;28;20047;-80
2023/01/22 06:21:16;;;;;;;9.30;7.33;;;;;;;-0.41;100.00;103344.94;10496670;28;20116;-79
2023/01/22 06:26:16;;;;;;;12.53;8.13;;;;;;;-0.41;100.00;103350.34;10488737;28;20037;-79
2023/01/22 06:31:17;;;;;;;10.80;7.80;;;;;;;-0.38;100.00;103328.44;10457868;28;20075;-79
2023/01/22 06:36:17;;;;;;;13.17;7.97;;;;;;;-0.38;100.00;103328.44;10439324;28;20036;-79
2023/01/22 06:41:18;;;;;;;11.63;7.43;;;;;;;-0.41;100.00;103328.72;10474339;28;20029;-80
2023/01/22 06:46:18;;;;;;;10.33;8.00;;;;;;;-0.56;100.00;103332.59;10497097;28;20080;-80
2023/01/22 06:51:19;;;;;;;12.33;7.63;;;;;;;-0.39;100.00;103339.38;10496385;28;20648;-79
2023/01/22 06:56:19;;;;;;;11.40;8.13;;;;;;;-0.39;100.00;103342.97;10496524;28;20524;-73
2023/01/22 07:01:20;;;;;;;8.87;7.70;;;;;;;-0.38;100.00;103344.69;10499404;28;20106;-78
2023/01/22 07:06:20;;;;;;;12.00;7.60;;;;;;;-0.37;100.00;103343.72;10496848;28;20040;-79
2023/01/22 07:11:20;;;;;;;12.50;6.90;;;;;;;-0.48;100.00;103339.13;10485938;28;20500;-79
2023/01/22 07:16:21;;;;;;;8.13;6.90;;;;;;;-0.36;100.00;103356.25;10504020;28;20044;-79
2023/01/22 07:21:21;;;;;;;10.27;7.60;;;;;;;-0.39;100.00;103353.81;10504355;28;20033;-79
2023/01/22 07:26:22;;;;;;;10.30;7.57;;;;;;;-0.43;100.00;103347.75;10504097;28;20056;-79
2023/01/22 07:31:22;;;;;;;13.93;7.73;;;;;;;-0.37;100.00;103368.09;10505692;28;20364;-79
2023/01/22 07:36:23;;;;;;;10.43;7.63;;;;;;;-0.36;100.00;103366.22;10505536;28;20066;-81
2023/01/22 07:41:23;;;;;;;11.97;7.73;;;;;;;-0.36;100.00;103358.97;10502034;28;20044;-80
2023/01/22 07:46:24;;;;;;;8.97;7.03;;;;;;;-0.32;100.00;103365.84;10493436;28;20036;-80
2023/01/22 07:51:24;;;;;;;11.30;7.87;;;;;;;-0.34;100.00;103367.81;10502801;28;20044;-80
2023/01/22 07:56:25;;;;;;;13.73;8.70;;;;;;;-0.31;100.00;103362.19;10477633;28;20071;-81
2023/01/22 08:01:25;;;;;;;12.73;9.17;;;;;;;-0.34;100.00;103362.41;10471552;28;20033;-80
2023/01/22 08:06:26;;;;;;;12.68;9.18;;;;;;;-0.33;100.00;103364.16;10502190;28;20158;-80
2023/01/22 08:11:26;;;;;;;10.67;9.57;;;;;;;-0.34;100.00;103369.69;10503594;28;20048;-79
2023/01/22 08:16:27;;;;;;;11.43;8.77;;;;;;;-0.31;100.00;103378.44;10468337;28;20041;-80
2023/01/22 08:21:28;;;;;;;8.40;7.47;;;;;;;-0.27;100.00;103374.50;10503213;28;20032;-80
2023/01/22 08:26:28;;;;;;;10.03;8.33;;;;;;;-0.28;100.00;103371.91;10492052;28;20049;-80
2023/01/22 08:31:29;;;;;;;10.63;8.90;;;;;;;-0.27;100.00;103377.19;10496790;28;20139;-80
2023/01/22 08:36:29;;;;;;;9.57;7.67;;;;;;;-0.22;100.00;103382.25;10474337;28;20036;-78
2023/01/22 08:41:30;;;;;;;12.80;7.80;;;;;;;-0.11;100.00;103376.81;10459614;28;20044;-80
2023/01/22 08:46:30;;;;;;;9.63;7.97;;;;;;;-0.03;100.00;103373.50;10480411;28;20040;-80
2023/01/22 08:51:31;;;;;;;11.40;8.53;;;;;;;-0.08;100.00;103379.31;10494128;28;20060;-80
2023/01/22 08:56:32;;;;;;;12.27;8.57;;;;;;;-0.04;100.00;103369.09;10500399;28;20043;-79
2023/01/22 09:01:32;;;;;;;11.05;8.50;;;;;;;0.12;100.00;103374.97;10488882;28;20037;-79
2023/01/22 09:06:33;;;;;;;10.60;8.17;;;;;;;0.19;100.00;103381.63;10488433;28;20048;-80
2023/01/22 09:11:34;;;;;;;13.40;9.33;;;;;;;0.28;100.00;103390.84;10483595;28;20066;-80
2023/01/22 09:16:34;;;;;;;13.10;9.83;;;;;;;0.16;100.00;103354.78;10494322;28;20033;-79
2023/01/22 09:21:36;;;;;;;15.10;10.30;;;;;;;0.42;100.00;103386.19;10457842;28;20114;-81
2023/01/22 09:26:36;;;;;;;10.60;7.97;;;;;;;0.47;100.00;103389.34;10486896;28;20064;-79
2023/01/22 09:31:37;;;;;;;13.33;8.90;;;;;;;0.59;100.00;103394.63;10501511;28;20048;-80
2023/01/22 09:36:38;;;;;;;12.03;9.13;;;;;;;0.56;100.00;103400.31;10499040;28;20045;-81
2023/01/22 09:41:39;;;;;;;12.53;9.57;;;;;;;0.57;100.00;103388.47;10496822;28;20059;-80
2023/01/22 09:46:45;;;;;;;10.67;8.03;;;;;;;0.68;100.00;103413.84;10496550;28;20499;-81
2023/01/22 09:52:00;;;;;;;9.73;7.60;;;;;;;0.64;100.00;103385.25;10498443;28;20487;-81
2023/01/22 09:57:02;;;;;;;15.07;8.43;;;;;;;0.77;100.00;103411.22;10466854;28;20053;-80
2023/01/22 10:02:22;;;;;;;11.10;8.43;;;;;;;0.77;100.00;103407.66;10498385;28;20066;-82
2023/01/22 10:07:42;;;;;;;10.43;8.20;;;;;;;0.82;100.00;103400.00;10471397;28;20041;-84
2023/01/22 10:12:42;;;;;;;11.10;8.13;;;;;;;0.93;100.00;103397.25;10459568;28;20051;-83
2023/01/22 10:17:43;;;;;;;11.03;8.40;;;;;;;1.03;100.00;103397.34;10463278;28;20040;-82
2023/01/22 10:22:43;;;;;;;10.00;7.53;;;;;;;1.15;100.00;103384.59;10481456;28;20029;-82
2023/01/22 10:27:44;;;;;;;8.52;6.60;;;;;;;1.14;100.00;103378.31;10459609;28;20037;-80
2023/01/22 10:32:58;;;;;;;11.60;7.53;;;;;;;1.28;100.00;103390.72;10453062;28;20037;-82
2023/01/22 10:37:59;;;;;;;9.68;7.25;;;;;;;1.35;100.00;103382.91;10498789;28;20094;-81
2023/01/22 10:43:14;;;;;;;9.32;6.78;;;;;;;1.42;100.00;103354.22;10486544;28;20665;-81
2023/01/22 10:48:15;;;;;;;11.10;7.60;;;;;;;1.52;100.00;103347.00;10451632;28;20036;-81
2023/01/22 10:53:25;;;;;;;10.40;6.93;;;;;;;1.66;100.00;103350.38;10475099;28;20476;-81
2023/01/22 10:58:31;;;;;;;8.88;6.78;;;;;;;1.97;100.00;103348.53;10474967;28;20044;-82
2023/01/22 11:03:34;;;;;;;9.50;6.77;;;;;;;2.19;100.00;103351.03;10473624;28;20033;-82
2023/01/22 11:08:42;;;;;;;8.82;5.72;;;;;;;2.30;100.00;103360.09;10473942;28;20060;-83
2023/01/22 11:13:53;;;;;;;8.50;6.28;;;;;;;2.26;100.00;103353.22;10473574;28;20041;-82
2023/01/22 11:19:12;;;;;;;9.27;6.63;;;;;;;2.29;100.00;103359.19;10457382;28;20108;-84
2023/01/22 11:24:14;;;;;;;8.90;6.30;;;;;;;2.09;100.00;103355.59;10475510;28;20029;-85
2023/01/22 11:29:40;;;;;;;10.15;6.30;;;;;;;1.93;100.00;103341.63;10478552;28;20063;-84
2023/01/22 11:35:21;;;;;;;10.25;7.07;;;;;;;1.77;100.00;103353.84;10481458;28;20204;-83
2023/01/22 11:40:30;;;;;;;10.77;6.28;;;;;;;1.72;100.00;103344.41;10454298;28;20047;-82
2023/01/22 11:46:08;;;;;;;7.28;6.45;;;;;;;1.76;100.00;103365.72;10442794;28;20025;-84
2023/01/22 11:51:26;;;;;;;10.48;6.47;;;;;;;1.61;100.00;103364.34;10473460;28;20044;-83
2023/01/22 11:56:56;;;;;;;9.65;6.65;;;;;;;1.54;100.00;103355.88;10459607;28;20124;-84
2023/01/22 12:02:21;;;;;;;14.05;7.53;;;;;;;1.54;100.00;103350.44;10467817;28;20049;-84
2023/01/22 12:07:48;;;;;;;11.40;7.15;;;;;;;1.52;100.00;103348.84;10482106;28;20094;-77
2023/01/22 12:12:58;;;;;;;12.85;7.40;;;;;;;1.44;100.00;103344.09;10478485;28;20056;-84
2023/01/22 12:18:04;;;;;;;10.10;6.53;;;;;;;1.44;100.00;103349.50;10477613;28;20127;-83
2023/01/22 12:23:08;;;;;;;9.73;5.65;;;;;;;1.53;100.00;103343.31;10473856;28;20040;-89
2023/01/22 12:28:19;;;;;;;9.97;7.03;;;;;;;1.55;100.00;103348.56;10466479;28;20052;-72
2023/01/22 12:33:23;;;;;;;12.60;7.23;;;;;;;1.47;100.00;103332.09;10476254;28;20040;-73
2023/01/22 12:38:51;;;;;;;10.53;6.20;;;;;;;1.64;100.00;103341.50;10480618;28;20511;-73
2023/01/22 12:43:54;;;;;;;6.93;5.60;;;;;;;1.66;100.00;103340.38;10499381;28;20037;-72
2023/01/22 12:49:04;;;;;;;7.85;5.63;;;;;;;1.63;100.00;103324.31;10470927;28;20044;-72
2023/01/22 12:54:26;;;;;;;7.20;5.85;;;;;;;1.69;100.00;103342.78;10450688;28;20033;-71
2023/01/22 12:59:39;;;;;;;11.40;6.40;;;;;;;1.33;100.00;103279.88;10477248;28;20060;-72
2023/01/22 13:04:39;;;;;;;8.38;5.38;;;;;;;1.72;100.00;103339.81;10477498;28;20035;-72
2023/01/22 13:09:40;;;;;;;11.15;7.35;;;;;;;1.75;100.00;103334.09;10459617;28;20047;-72
2023/01/22 13:14:41;;;;;;;10.97;6.40;;;;;;;1.75;100.00;103336.81;10476317;28;20037;-73
2023/01/22 13:19:43;;;;;;;9.23;6.35;;;;;;;1.81;100.00;103320.00;10472560;28;20041;-72
2023/01/22 13:24:48;;;;;;;13.68;6.53;;;;;;;1.85;100.00;103330.59;10474561;28;20043;-72
2023/01/22 13:29:49;;;;;;;12.45;6.65;;;;;;;1.91;100.00;103327.34;10473904;28;20041;-72
2023/01/22 13:34:49;;;;;;;11.65;6.78;;;;;;;1.98;100.00;103331.22;10480936;28;20037;-72
2023/01/22 13:39:50;;;;;;;11.17;6.37;;;;;;;1.94;100.00;103332.47;10473933;28;20056;-72
2023/01/22 13:44:50;;;;;;;8.60;5.67;;;;;;;1.93;100.00;103328.06;10480401;28;20102;-72
2023/01/22 13:49:51;;;;;;;8.67;5.17;;;;;;;1.91;100.00;103340.91;10464140;28;20053;-72
2023/01/22 13:55:00;;;;;;;22.60;7.22;;;;;;;1.77;100.00;103326.69;10475543;28;20066;-73
2023/01/22 14:00:02;;;;;;;12.47;6.53;;;;;;;1.94;100.00;103343.34;10472752;28;20349;-72
2023/01/22 14:05:03;;;;;;;13.57;5.90;;;;;;;1.91;100.00;103338.19;10457100;28;20090;-71
2023/01/22 14:10:18;;;;;;;19.88;6.97;;;;;;;1.80;100.00;103340.00;10466048;28;20475;-72
2023/01/22 14:15:19;;;;;;;10.13;5.37;;;;;;;1.82;100.00;103345.31;10489062;28;20037;-72
2023/01/22 14:20:20;;;;;;;12.98;6.88;;;;;;;1.84;100.00;103361.47;10459540;28;20037;-72
2023/01/22 14:25:20;;;;;;;12.93;5.73;;;;;;;1.89;100.00;103348.34;10466658;28;20040;-72
2023/01/22 14:30:21;;;;;;;13.93;6.03;;;;;;;1.89;100.00;103361.94;10464651;28;20044;-72
2023/01/22 14:35:23;;;;;;;11.20;6.72;;;;;;;1.89;100.00;103361.94;10469033;28;20040;-72
2023/01/22 14:40:24;;;;;;;11.77;6.80;;;;;;;1.93;100.00;103366.09;10472983;28;20029;-72
2023/01/22 14:45:25;;;;;;;12.27;6.03;;;;;;;1.97;100.00;103370.25;10487846;28;20655;-71
2023/01/22 14:50:25;;;;;;;10.93;6.43;;;;;;;1.92;100.00;103362.53;10486213;28;20041;-72
2023/01/22 14:55:26;;;;;;;15.18;6.72;;;;;;;1.75;100.00;103354.97;10485122;28;20032;-72
2023/01/22 15:00:27;;;;;;;14.35;7.28;;;;;;;1.84;100.00;103378.63;10480658;28;20044;-72
2023/01/22 15:05:28;;;;;;;15.00;7.23;;;;;;;1.88;100.00;103381.91;10458478;28;20041;-72
2023/01/22 15:10:28;;;;;;;9.77;5.75;;;;;;;1.81;100.00;103384.31;10468165;28;20438;-72
2023/01/22 15:15:29;;;;;;;10.70;6.22;;;;;;;1.81;100.00;103387.03;10470912;28;20044;-72
2023/01/22 15:20:29;;;;;;;14.57;6.55;;;;;;;1.76;100.00;103379.31;10455423;28;20056;-72
2023/01/22 15:25:31;;;;;;;10.43;6.20;;;;;;;1.75;100.00;103388.44;10471766;28;20078;-73
2023/01/22 15:30:31;;;;;;;10.60;5.88;;;;;;;1.70;100.00;103379.84;10499257;28;20041;-72
2023/01/22 15:35:32;;;;;;;14.98;5.97;;;;;;;1.73;100.00;103386.84;10470633;28;20037;-72
2023/01/22 15:40:32;;;;;;;15.32;7.47;;;;;;;1.71;100.00;103388.84;10475143;28;20063;-72
2023/01/22 15:45:32;;;;;;;14.70;7.27;;;;;;;1.70;100.00;103382.56;10482180;28;20487;-72
2023/01/22 15:50:33;;;;;;;10.32;5.70;;;;;;;1.68;100.00;103380.97;10464823;28;20553;-72
2023/01/22 15:55:33;;;;;;;11.77;5.77;;;;;;;1.64;100.00;103385.81;10460566;28;20504;-72
2023/01/22 16:00:34;;;;;;;10.00;6.15;;;;;;;1.62;100.00;103382.38;10460785;28;20060;-72
2023/01/22 16:05:34;;;;;;;9.23;6.10;;;;;;;1.61;100.00;103388.78;10462020;28;20037;-72
2023/01/22 16:10:35;;;;;;;10.57;6.13;;;;;;;1.59;100.00;103396.19;10460629;28;20045;-72
2023/01/22 16:15:35;;;;;;;9.80;6.00;;;;;;;1.59;100.00;103388.03;10464277;28;20060;-72
2023/01/22 16:20:36;;;;;;;14.68;6.72;;;;;;;1.59;100.00;103388.94;10463284;28;20068;-72
2023/01/22 16:25:38;;;;;;;13.48;7.07;;;;;;;1.58;100.00;103391.78;10461737;28;20033;-72
2023/01/22 16:30:41;;;;;;;10.68;6.35;;;;;;;1.57;100.00;103395.47;10457217;28;20041;-72
2023/01/22 16:35:42;;;;;;;11.38;6.82;;;;;;;1.57;100.00;103400.88;10457937;28;20056;-72
2023/01/22 16:40:42;;;;;;;14.32;6.53;;;;;;;1.55;100.00;103398.34;10456080;28;20033;-71
2023/01/22 16:45:43;;;;;;;8.67;6.10;;;;;;;1.50;100.00;103391.56;10458735;28;20045;-72
2023/01/22 16:50:43;;;;;;;15.40;7.18;;;;;;;1.49;100.00;103408.84;10448843;28;20063;-72
2023/01/22 16:55:44;;;;;;;10.25;6.53;;;;;;;1.48;100.00;103407.13;10459721;28;20037;-72
2023/01/22 17:00:46;;;;;;;13.48;6.70;;;;;;;1.48;100.00;103418.00;10458367;28;20480;-72
2023/01/22 17:05:47;;;;;;;12.83;6.87;;;;;;;1.51;100.00;103420.41;10457860;28;20043;-72
2023/01/22 17:10:49;;;;;;;9.13;5.55;;;;;;;1.52;100.00;103431.16;10458130;28;20037;-72
2023/01/22 17:15:51;;;;;;;8.98;6.25;;;;;;;1.52;100.00;103430.31;10477282;28;20091;-72
2023/01/22 17:20:52;;;;;;;10.50;5.53;;;;;;;1.55;100.00;103427.31;10478659;28;20132;-73
2023/01/22 17:25:52;;;;;;;13.45;5.45;;;;;;;1.54;100.00;103431.03;10457814;28;20052;-72
2023/01/22 17:30:52;;;;;;;11.50;6.15;;;;;;;1.56;100.00;103437.19;10456098;28;20068;-72
2023/01/22 17:35:57;;;;;;;12.40;6.13;;;;;;;1.54;100.00;103442.75;10458474;28;20041;-73
2023/01/22 17:41:03;;;;;;;15.00;6.38;;;;;;;1.54;100.00;103444.63;10442412;28;20139;-73
2023/01/22 17:46:14;;;;;;;8.82;5.80;;;;;;;1.57;100.00;103445.22;10441102;28;20036;-72
2023/01/22 17:51:19;;;;;;;9.23;6.13;;;;;;;1.47;100.00;103436.13;10452177;28;20048;-72
2023/01/22 17:56:25;;;;;;;10.77;5.72;;;;;;;1.57;100.00;103455.19;10475673;28;20057;-72
2023/01/22 18:01:27;;;;;;;15.50;6.43;;;;;;;1.58;100.00;103454.22;10452014;28;20033;-73
2023/01/22 18:06:27;;;;;;;11.93;7.07;;;;;;;1.47;100.00;103444.28;10453172;28;20816;-72
2023/01/22 18:11:28;;;;;;;9.40;6.87;;;;;;;1.55;100.00;103458.06;10459286;28;20071;-70
2023/01/22 18:16:31;;;;;;;15.27;6.67;;;;;;;1.60;100.00;103465.81;10481997;28;20093;-72
2023/01/22 18:21:31;;;;;;;17.57;6.70;;;;;;;1.55;100.00;103459.91;10455849;28;20128;-72
2023/01/22 18:26:33;;;;;;;13.50;6.93;;;;;;;1.52;100.00;103461.03;10454109;28;20595;-72
2023/01/22 18:31:33;;;;;;;14.27;7.13;;;;;;;1.42;100.00;103436.50;10456358;28;20029;-72
2023/01/22 18:36:37;;;;;;;11.27;6.13;;;;;;;1.65;100.00;103463.53;10455696;28;20036;-72
2023/01/22 18:41:39;;;;;;;11.83;6.97;;;;;;;1.67;100.00;103461.56;10455413;28;20553;-72
2023/01/22 18:46:41;;;;;;;12.70;5.50;;;;;;;1.57;100.00;103449.75;10457744;28;20063;-72
2023/01/22 18:51:43;;;;;;;14.30;7.30;;;;;;;1.68;100.00;103460.59;10453692;28;20041;-72
2023/01/22 18:56:44;;;;;;;15.57;7.20;;;;;;;1.68;100.00;103473.31;10453476;28;20037;-72
2023/01/22 19:01:50;;;;;;;13.27;6.78;;;;;;;1.69;100.00;103475.00;10455408;28;20025;-72
2023/01/22 19:06:51;;;;;;;13.80;7.53;;;;;;;1.61;100.00;103467.50;10460919;28;20041;-72
2023/01/22 19:11:53;;;;;;;11.63;7.33;;;;;;;1.70;100.00;103488.47;10442753;28;20048;-73
2023/01/22 19:16:53;;;;;;;15.57;6.78;;;;;;;1.70;100.00;103493.91;10471640;28;20045;-72
2023/01/22 19:21:54;;;;;;;13.05;7.30;;;;;;;1.71;100.00;103489.31;10460286;28;20477;-72
2023/01/22 19:26:55;;;;;;;12.55;6.40;;;;;;;1.65;100.00;103473.56;10463414;28;20049;-72
2023/01/22 19:31:56;;;;;;;19.02;7.60;;;;;;;1.72;100.00;103481.06;10439402;28;20518;-72
2023/01/22 19:37:00;;;;;;;17.95;8.63;;;;;;;1.74;100.00;103472.78;10504237;28;20044;-72
2023/01/22 19:42:01;;;;;;;12.45;6.78;;;;;;;1.68;100.00;103474.16;10474068;28;20496;-72
2023/01/22 19:47:02;;;;;;;12.33;7.00;;;;;;;1.69;100.00;103486.72;10461142;28;20064;-72
2023/01/22 19:52:02;;;;;;;11.20;6.30;;;;;;;1.68;100.00;103479.59;10466882;28;20504;-72
2023/01/22 19:57:03;;;;;;;14.83;7.00;;;;;;;1.69;100.00;103486.72;10460257;28;20041;-72
2023/01/22 20:02:03;;;;;;;13.90;7.43;;;;;;;1.67;100.00;103483.28;10458949;28;20091;-73
2023/01/22 20:07:04;;;;;;;14.10;7.68;;;;;;;1.69;100.00;103491.31;10459759;28;20036;-72
2023/01/22 20:12:05;;;;;;;16.07;7.63;;;;;;;1.67;100.00;103502.28;10460593;28;20140;-72
2023/01/22 20:17:06;;;;;;;15.25;7.30;;;;;;;1.68;100.00;103512.19;10485683;28;20041;-72
2023/01/22 20:22:09;;;;;;;14.63;7.97;;;;;;;1.70;100.00;103521.06;10477422;28;20033;-71
2023/01/22 20:27:10;;;;;;;15.20;7.90;;;;;;;1.62;100.00;103520.84;10471234;28;20033;-72
2023/01/22 20:32:11;;;;;;;12.10;6.83;;;;;;;1.75;100.00;103524.22;10467646;28;20068;-73
2023/01/22 20:37:11;;;;;;;13.77;7.23;;;;;;;1.75;100.00;103526.09;10459012;28;20036;-73
2023/01/22 20:42:12;;;;;;;13.63;6.70;;;;;;;1.72;100.00;103529.09;10479240;28;20518;-73
2023/01/22 20:47:12;;;;;;;12.40;7.40;;;;;;;1.22;100.00;103456.38;10488291;28;20373;-71
2023/01/22 20:52:14;;;;;;;13.65;6.93;;;;;;;1.68;100.00;103519.47;10461875;28;21064;-72
2023/01/22 20:57:15;;;;;;;14.07;7.77;;;;;;;1.75;100.00;103535.09;10488066;28;20041;-72
2023/01/22 21:02:15;;;;;;;19.40;7.15;;;;;;;1.75;100.00;103534.25;10498903;28;20048;-72
2023/01/22 21:07:15;;;;;;;13.13;7.60;;;;;;;1.76;100.00;103539.56;10498946;28;20059;-72
2023/01/22 21:12:16;;;;;;;13.30;7.90;;;;;;;1.74;100.00;103535.25;10423601;28;1128336;-73
2023/01/22 21:17:19;;;;;;;14.02;7.35;;;;;;;1.75;100.00;103534.25;10457550;28;20103;-72
2023/01/22 21:22:20;;;;;;;10.97;6.83;;;;;;;1.76;100.00;103539.56;10459014;28;20040;-73
2023/01/22 21:27:20;;;;;;;19.60;8.40;;;;;;;1.76;100.00;103536.84;10455135;28;20489;-73
2023/01/22 21:32:21;;;;;;;14.55;6.97;;;;;;;1.67;100.00;103523.16;10457454;28;20539;-72
2023/01/22 21:37:21;;;;;;;15.57;8.07;;;;;;;1.77;100.00;103538.53;10445036;28;20562;-72
2023/01/22 21:47:41;;;;;;;12.47;7.37;;;;;;;1.78;100.00;103540.28;10461226;28;20116;-72
2023/01/22 21:52:41;;;;;;;11.75;7.07;;;;;;;1.78;100.00;103543.00;10460092;28;20539;-72
2023/01/22 21:57:43;;;;;;;17.80;8.40;;;;;;;1.80;100.00;103542.88;10458976;28;20040;-72
2023/01/22 22:02:44;;;;;;;14.30;7.80;;;;;;;1.83;100.00;103542.59;10461727;28;20499;-72
2023/01/22 22:07:44;;;;;;;14.20;7.45;;;;;;;1.84;100.00;103543.44;10495957;28;20025;-72
2023/01/22 22:12:45;;;;;;;14.18;8.48;;;;;;;1.71;100.00;103530.06;10494107;28;20036;-72
2023/01/22 22:17:45;;;;;;;17.90;9.43;;;;;;;1.81;100.00;103541.88;10497918;28;20044;-72
2023/01/22 22:22:46;;;;;;;14.47;8.47;;;;;;;1.80;100.00;103549.16;10480228;28;20033;-72
2023/01/22 22:27:46;;;;;;;15.75;8.77;;;;;;;1.80;100.00;103545.59;10497858;28;20052;-72
2023/01/22 22:32:47;;;;;;;15.10;9.55;;;;;;;1.74;100.00;103544.25;10497853;28;20101;-72
2023/01/22 22:37:47;;;;;;;15.43;9.03;;;;;;;1.84;100.00;103552.50;10496231;28;20036;-70
2023/01/22 22:42:47;;;;;;;16.27;10.05;;;;;;;1.84;100.00;103551.59;10497832;28;20040;-72
2023/01/22 22:47:48;;;;;;;21.90;10.10;;;;;;;1.90;100.00;103570.09;10496565;28;20090;-72
2023/01/22 22:52:48;;;;;;;16.10;9.25;;;;;;;1.90;100.00;103567.38;10496170;28;20033;-72
2023/01/22 22:57:49;;;;;;;16.60;9.10;;;;;;;1.86;100.00;103572.22;10496942;28;20041;-71
2023/01/22 23:02:49;;;;;;;17.00;9.33;;;;;;;1.88;100.00;103582.94;10496940;28;20036;-71
2023/01/22 23:07:50;;;;;;;17.10;9.30;;;;;;;1.80;100.00;103572.75;10496900;28;20040;-72